createdAt,value
2023-01-09T00:06:07.479Z,97517.38
2023-01-09T00:16:15.122Z,97504.40
2023-01-09T00:26:22.938Z,97495.21
2023-01-09T00:36:31.324Z,97485.11
2023-01-09T00:46:46.071Z,97473.64
2023-01-09T00:56:53.527Z,97474.51
2023-01-09T01:07:18.192Z,97476.61
2023-01-09T01:17:25.272Z,97474.83
2023-01-09T01:27:32.633Z,97459.28
2023-01-09T01:37:40.580Z,97451.23
2023-01-09T01:47:49.914Z,97440.17
2023-01-09T01:58:01.976Z,97427.91
2023-01-09T02:08:07.962Z,97421.05
2023-01-09T02:18:23.983Z,97411.88
2023-01-09T02:28:39.672Z,97405.59
2023-01-09T02:38:49.090Z,97411.94
2023-01-09T02:48:56.945Z,97411.74
2023-01-09T02:59:15.738Z,97399.59
2023-01-09T03:09:26.363Z,97389.36
2023-01-09T03:19:37.265Z,97370.95
2023-01-09T03:29:43.759Z,97363.93
2023-01-09T03:39:51.198Z,97354.35
2023-01-09T03:49:58.349Z,97340.39
2023-01-09T04:00:04.742Z,97334.62
2023-01-09T04:10:14.647Z,97328.67
2023-01-09T04:20:21.619Z,97320.84
2023-01-09T04:30:28.960Z,97311.16
2023-01-09T04:40:36.088Z,97302.27
2023-01-09T04:50:43.397Z,97292.83
2023-01-09T05:00:50.666Z,97284.05
2023-01-09T05:10:57.982Z,97278.84
2023-01-09T05:21:04.779Z,97275.31
2023-01-09T05:31:11.994Z,97264.20
2023-01-09T05:41:19.231Z,97257.17
2023-01-09T05:51:26.657Z,97249.12
2023-01-09T06:01:33.973Z,97230.41
2023-01-09T06:11:41.195Z,97207.91
2023-01-09T06:21:48.574Z,97207.73
2023-01-09T06:31:55.944Z,97197.77
2023-01-09T06:42:03.135Z,97195.94
2023-01-09T06:52:10.395Z,97195.70
2023-01-09T07:02:16.405Z,97186.79
2023-01-09T07:12:23.428Z,97186.79
2023-01-09T07:22:30.597Z,97188.21
2023-01-09T07:32:37.195Z,97194.02
2023-01-09T07:42:44.434Z,97195.64
2023-01-09T07:52:51.470Z,97192.67
2023-01-09T08:02:58.718Z,97188.21
2023-01-09T08:13:06.181Z,97184.92
2023-01-09T08:23:12.514Z,97179.64
2023-01-09T08:33:19.800Z,97169.52
2023-01-09T08:43:43.394Z,97172.04
2023-01-09T08:53:49.773Z,97162.59
2023-01-09T09:03:57.161Z,97156.67
2023-01-09T09:14:04.968Z,97147.96
2023-01-09T09:24:11.561Z,97143.17
2023-01-09T09:34:19.006Z,97136.14
2023-01-09T09:44:53.793Z,97120.95
2023-01-09T09:55:08.161Z,97116.89
2023-01-09T10:05:13.622Z,97114.89
2023-01-09T10:15:19.996Z,97113.27
2023-01-09T10:25:25.890Z,97107.23
2023-01-09T10:35:51.228Z,97100.86
2023-01-09T10:46:03.434Z,97094.23
2023-01-09T10:56:08.760Z,97088.13
2023-01-09T11:06:16.789Z,97085.48
2023-01-09T11:16:24.565Z,97081.14
2023-01-09T11:26:33.263Z,97075.83
2023-01-09T11:36:40.544Z,97071.34
2023-01-09T11:46:47.652Z,97066.98
2023-01-09T11:56:56.507Z,97065.04
2023-01-09T12:07:22.259Z,97059.42
2023-01-09T12:17:57.776Z,97052.75
2023-01-09T12:28:08.178Z,97044.71
2023-01-09T12:38:23.999Z,97035.66
2023-01-09T12:48:34.714Z,97030.21
2023-01-09T12:58:41.952Z,97042.43
2023-01-09T13:08:46.972Z,97046.55
2023-01-09T13:18:58.933Z,97040.70
2023-01-09T13:29:04.457Z,97030.65
2023-01-09T13:39:20.182Z,97030.17
2023-01-09T13:49:48.975Z,97055.23
2023-01-09T13:59:56.013Z,97085.86
2023-01-09T14:10:06.497Z,97101.79
2023-01-09T14:20:20.084Z,97122.80
2023-01-09T14:30:37.331Z,97120.15
2023-01-09T14:40:46.342Z,97140.15
2023-01-09T14:50:57.235Z,97162.41
2023-01-09T15:01:06.271Z,97174.97
2023-01-09T15:11:15.106Z,97188.79
2023-01-09T15:21:23.344Z,97200.58
2023-01-09T15:31:31.680Z,97202.16
2023-01-09T15:41:57.204Z,97229.94
2023-01-09T15:52:05.295Z,97237.55
2023-01-09T16:02:32.424Z,97243.67
2023-01-09T16:12:43.036Z,97267.44
2023-01-09T16:22:55.373Z,97269.17
2023-01-09T16:33:02.685Z,97277.35
2023-01-09T16:43:15.694Z,97295.02
2023-01-09T16:53:24.354Z,97308.23
2023-01-09T17:03:31.546Z,97323.76
2023-01-09T17:13:38.590Z,97335.95
2023-01-09T17:23:46.092Z,97336.90
2023-01-09T17:33:54.035Z,97342.61
2023-01-09T17:44:02.212Z,97366.88
2023-01-09T17:54:10.373Z,97381.42
2023-01-09T18:04:17.465Z,97392.23
2023-01-09T18:14:24.699Z,97386.91
2023-01-09T18:24:32.210Z,97393.83
2023-01-09T18:34:38.733Z,97399.16
2023-01-09T18:44:45.792Z,97415.50
2023-01-09T18:54:53.989Z,97416.79
2023-01-09T19:05:00.271Z,97426.05
2023-01-09T19:15:11.600Z,97447.02
2023-01-09T19:25:17.615Z,97439.84
2023-01-09T19:35:24.952Z,97445.55
2023-01-09T19:45:32.482Z,97461.88
2023-01-09T19:55:39.838Z,97465.27
2023-01-09T20:05:47.406Z,97480.55
2023-01-09T20:15:54.578Z,97495.98
2023-01-09T20:26:02.189Z,97495.34
2023-01-09T20:36:11.078Z,97506.10
2023-01-09T20:46:18.383Z,97519.50
2023-01-09T20:56:25.262Z,97534.83
2023-01-09T21:06:33.339Z,97544.55
2023-01-09T21:16:40.741Z,97554.97
2023-01-09T21:26:48.148Z,97552.16
2023-01-09T21:36:55.341Z,97567.09
2023-01-09T21:47:04.532Z,97570.56
2023-01-09T21:57:13.180Z,97571.51
2023-01-09T22:07:20.525Z,97586.00
2023-01-09T22:17:29.334Z,97592.05
2023-01-09T22:27:37.421Z,97605.07
2023-01-09T22:37:44.793Z,97614.77
2023-01-09T22:47:52.098Z,97624.23
2023-01-09T22:58:00.454Z,97633.20
2023-01-09T23:08:04.537Z,97646.10
2023-01-09T23:18:11.674Z,97654.70
2023-01-09T23:28:18.255Z,97666.78
2023-01-09T23:38:24.409Z,97679.31
2023-01-09T23:48:31.467Z,97671.98
2023-01-09T23:58:38.815Z,97680.77
